sensor_id;sensor_type;location;lat;lon;timestamp;P1;durP1;ratioP1;P2;durP2;ratioP2
55758;SDS011;41678;52.126;20.664;2023-06-14T00:00:35;14.13;;;6.50;;
55758;SDS011;41678;52.126;20.664;2023-06-14T00:06:15;11.48;;;5.50;;
55758;SDS011;41678;52.126;20.664;2023-06-14T00:11:35;15.65;;;6.63;;
55758;SDS011;41678;52.126;20.664;2023-06-14T00:16:54;10.88;;;5.68;;
55758;SDS011;41678;52.126;20.664;2023-06-14T00:22:17;11.18;;;6.30;;
55758;SDS011;41678;52.126;20.664;2023-06-14T00:27:37;10.90;;;5.78;;
55758;SDS011;41678;52.126;20.664;2023-06-14T00:32:57;14.90;;;6.20;;
55758;SDS011;41678;52.126;20.664;2023-06-14T00:43:38;11.70;;;6.18;;
55758;SDS011;41678;52.126;20.664;2023-06-14T00:48:58;16.13;;;6.45;;
55758;SDS011;41678;52.126;20.664;2023-06-14T00:54:20;13.20;;;6.60;;
55758;SDS011;41678;52.126;20.664;2023-06-14T00:59:44;12.48;;;6.05;;
55758;SDS011;41678;52.126;20.664;2023-06-14T01:05:05;10.45;;;5.43;;
55758;SDS011;41678;52.126;20.664;2023-06-14T01:16:14;11.32;;;5.47;;
55758;SDS011;41678;52.126;20.664;2023-06-14T01:21:34;10.48;;;6.03;;
55758;SDS011;41678;52.126;20.664;2023-06-14T01:27:01;13.80;;;5.88;;
55758;SDS011;41678;52.126;20.664;2023-06-14T01:32:24;14.40;;;6.22;;
55758;SDS011;41678;52.126;20.664;2023-06-14T01:37:47;11.98;;;5.72;;
55758;SDS011;41678;52.126;20.664;2023-06-14T01:43:08;12.20;;;4.97;;
55758;SDS011;41678;52.126;20.664;2023-06-14T01:48:30;10.77;;;5.80;;
55758;SDS011;41678;52.126;20.664;2023-06-14T01:53:49;11.80;;;6.28;;
55758;SDS011;41678;52.126;20.664;2023-06-14T01:59:09;13.15;;;6.20;;
55758;SDS011;41678;52.126;20.664;2023-06-14T02:04:28;11.75;;;5.85;;
55758;SDS011;41678;52.126;20.664;2023-06-14T02:09:48;11.80;;;5.15;;
55758;SDS011;41678;52.126;20.664;2023-06-14T02:15:07;10.23;;;6.20;;
55758;SDS011;41678;52.126;20.664;2023-06-14T02:20:28;10.50;;;5.85;;
55758;SDS011;41678;52.126;20.664;2023-06-14T02:25:49;9.98;;;5.30;;
55758;SDS011;41678;52.126;20.664;2023-06-14T02:31:09;11.27;;;6.22;;
55758;SDS011;41678;52.126;20.664;2023-06-14T02:36:29;11.48;;;5.93;;
55758;SDS011;41678;52.126;20.664;2023-06-14T02:41:53;10.48;;;5.55;;
55758;SDS011;41678;52.126;20.664;2023-06-14T02:47:17;15.45;;;6.30;;
55758;SDS011;41678;52.126;20.664;2023-06-14T02:52:37;15.65;;;6.50;;
55758;SDS011;41678;52.126;20.664;2023-06-14T02:57:57;10.40;;;4.90;;
55758;SDS011;41678;52.126;20.664;2023-06-14T03:03:19;15.05;;;5.90;;
55758;SDS011;41678;52.126;20.664;2023-06-14T03:08:45;11.18;;;6.00;;
55758;SDS011;41678;52.126;20.664;2023-06-14T03:14:08;12.68;;;6.45;;
55758;SDS011;41678;52.126;20.664;2023-06-14T03:19:30;16.35;;;6.00;;
55758;SDS011;41678;52.126;20.664;2023-06-14T03:24:49;11.80;;;6.45;;
55758;SDS011;41678;52.126;20.664;2023-06-14T03:30:09;12.63;;;6.20;;
55758;SDS011;41678;52.126;20.664;2023-06-14T03:35:30;12.17;;;6.63;;
55758;SDS011;41678;52.126;20.664;2023-06-14T03:40:50;13.27;;;6.80;;
55758;SDS011;41678;52.126;20.664;2023-06-14T03:46:10;13.90;;;6.80;;
55758;SDS011;41678;52.126;20.664;2023-06-14T03:51:30;9.20;;;5.72;;
55758;SDS011;41678;52.126;20.664;2023-06-14T03:56:50;12.68;;;6.43;;
55758;SDS011;41678;52.126;20.664;2023-06-14T04:02:10;12.40;;;5.75;;
55758;SDS011;41678;52.126;20.664;2023-06-14T04:07:30;10.73;;;6.18;;
55758;SDS011;41678;52.126;20.664;2023-06-14T04:12:51;12.17;;;6.90;;
55758;SDS011;41678;52.126;20.664;2023-06-14T04:18:12;9.75;;;5.65;;
55758;SDS011;41678;52.126;20.664;2023-06-14T04:23:32;11.55;;;6.63;;
55758;SDS011;41678;52.126;20.664;2023-06-14T04:28:55;22.40;;;9.43;;
55758;SDS011;41678;52.126;20.664;2023-06-14T04:34:16;10.60;;;6.53;;
55758;SDS011;41678;52.126;20.664;2023-06-14T04:39:42;17.90;;;6.78;;
55758;SDS011;41678;52.126;20.664;2023-06-14T04:45:02;17.52;;;6.90;;
55758;SDS011;41678;52.126;20.664;2023-06-14T04:50:23;14.85;;;6.38;;
55758;SDS011;41678;52.126;20.664;2023-06-14T04:55:43;11.75;;;6.28;;
55758;SDS011;41678;52.126;20.664;2023-06-14T05:01:05;13.27;;;6.70;;
55758;SDS011;41678;52.126;20.664;2023-06-14T05:06:25;13.93;;;6.00;;
55758;SDS011;41678;52.126;20.664;2023-06-14T05:11:47;12.40;;;5.75;;
55758;SDS011;41678;52.126;20.664;2023-06-14T05:17:07;18.10;;;7.25;;
55758;SDS011;41678;52.126;20.664;2023-06-14T05:22:27;12.20;;;6.95;;
55758;SDS011;41678;52.126;20.664;2023-06-14T05:27:46;12.43;;;6.72;;
55758;SDS011;41678;52.126;20.664;2023-06-14T05:33:06;12.05;;;6.70;;
55758;SDS011;41678;52.126;20.664;2023-06-14T05:38:26;16.60;;;6.78;;
55758;SDS011;41678;52.126;20.664;2023-06-14T05:43:46;11.30;;;5.70;;
55758;SDS011;41678;52.126;20.664;2023-06-14T05:49:06;12.40;;;6.63;;
55758;SDS011;41678;52.126;20.664;2023-06-14T05:54:26;13.38;;;7.55;;
55758;SDS011;41678;52.126;20.664;2023-06-14T05:59:46;14.23;;;6.68;;
55758;SDS011;41678;52.126;20.664;2023-06-14T06:05:05;12.18;;;6.97;;
55758;SDS011;41678;52.126;20.664;2023-06-14T06:10:26;13.65;;;7.30;;
55758;SDS011;41678;52.126;20.664;2023-06-14T06:15:45;15.85;;;6.68;;
55758;SDS011;41678;52.126;20.664;2023-06-14T06:21:05;17.45;;;7.68;;
55758;SDS011;41678;52.126;20.664;2023-06-14T06:26:25;15.25;;;6.85;;
55758;SDS011;41678;52.126;20.664;2023-06-14T06:31:45;16.60;;;6.97;;
55758;SDS011;41678;52.126;20.664;2023-06-14T06:37:05;17.38;;;7.63;;
55758;SDS011;41678;52.126;20.664;2023-06-14T06:42:25;12.40;;;6.65;;
55758;SDS011;41678;52.126;20.664;2023-06-14T07:02:23;13.75;;;6.63;;
55758;SDS011;41678;52.126;20.664;2023-06-14T07:07:43;12.65;;;6.07;;
55758;SDS011;41678;52.126;20.664;2023-06-14T07:13:03;12.52;;;6.60;;
55758;SDS011;41678;52.126;20.664;2023-06-14T07:18:23;16.92;;;6.43;;
55758;SDS011;41678;52.126;20.664;2023-06-14T07:23:42;10.40;;;5.13;;
55758;SDS011;41678;52.126;20.664;2023-06-14T07:29:02;14.57;;;5.78;;
55758;SDS011;41678;52.126;20.664;2023-06-14T07:34:22;13.48;;;5.50;;
55758;SDS011;41678;52.126;20.664;2023-06-14T07:39:41;11.07;;;4.43;;
55758;SDS011;41678;52.126;20.664;2023-06-14T07:45:02;9.35;;;4.85;;
55758;SDS011;41678;52.126;20.664;2023-06-14T07:50:23;11.77;;;4.60;;
55758;SDS011;41678;52.126;20.664;2023-06-14T07:55:42;13.55;;;3.38;;
55758;SDS011;41678;52.126;20.664;2023-06-14T08:01:02;10.93;;;3.42;;
55758;SDS011;41678;52.126;20.664;2023-06-14T08:06:25;15.65;;;3.30;;
55758;SDS011;41678;52.126;20.664;2023-06-14T08:11:45;8.05;;;3.25;;
55758;SDS011;41678;52.126;20.664;2023-06-14T08:17:04;10.88;;;3.80;;
55758;SDS011;41678;52.126;20.664;2023-06-14T08:22:24;12.65;;;3.28;;
55758;SDS011;41678;52.126;20.664;2023-06-14T08:27:45;11.93;;;3.97;;
55758;SDS011;41678;52.126;20.664;2023-06-14T08:33:05;10.38;;;3.33;;
55758;SDS011;41678;52.126;20.664;2023-06-14T08:38:25;11.52;;;3.03;;
55758;SDS011;41678;52.126;20.664;2023-06-14T08:43:44;8.80;;;3.42;;
55758;SDS011;41678;52.126;20.664;2023-06-14T08:49:04;10.93;;;4.57;;
55758;SDS011;41678;52.126;20.664;2023-06-14T08:54:29;20.15;;;5.30;;
55758;SDS011;41678;52.126;20.664;2023-06-14T08:59:51;8.90;;;3.50;;
55758;SDS011;41678;52.126;20.664;2023-06-14T09:05:12;8.05;;;3.22;;
55758;SDS011;41678;52.126;20.664;2023-06-14T09:10:33;12.27;;;3.17;;
55758;SDS011;41678;52.126;20.664;2023-06-14T09:15:54;11.90;;;3.33;;
55758;SDS011;41678;52.126;20.664;2023-06-14T09:21:15;7.70;;;3.10;;
55758;SDS011;41678;52.126;20.664;2023-06-14T09:26:36;9.15;;;2.83;;
55758;SDS011;41678;52.126;20.664;2023-06-14T09:31:57;8.30;;;3.40;;
55758;SDS011;41678;52.126;20.664;2023-06-14T09:37:26;13.10;;;2.90;;
55758;SDS011;41678;52.126;20.664;2023-06-14T09:42:49;12.07;;;3.03;;
55758;SDS011;41678;52.126;20.664;2023-06-14T09:48:10;12.02;;;4.10;;
55758;SDS011;41678;52.126;20.664;2023-06-14T09:53:30;10.40;;;4.33;;
55758;SDS011;41678;52.126;20.664;2023-06-14T09:58:55;13.02;;;4.90;;
55758;SDS011;41678;52.126;20.664;2023-06-14T10:04:16;13.77;;;5.93;;
55758;SDS011;41678;52.126;20.664;2023-06-14T10:09:40;16.13;;;6.22;;
55758;SDS011;41678;52.126;20.664;2023-06-14T10:15:03;10.00;;;4.90;;
55758;SDS011;41678;52.126;20.664;2023-06-14T10:25:44;12.50;;;4.13;;
55758;SDS011;41678;52.126;20.664;2023-06-14T10:36:28;12.25;;;4.53;;
55758;SDS011;41678;52.126;20.664;2023-06-14T10:41:54;17.40;;;4.30;;
55758;SDS011;41678;52.126;20.664;2023-06-14T10:47:25;9.27;;;4.57;;
55758;SDS011;41678;52.126;20.664;2023-06-14T10:52:49;11.23;;;4.40;;
55758;SDS011;41678;52.126;20.664;2023-06-14T10:58:09;11.15;;;4.80;;
55758;SDS011;41678;52.126;20.664;2023-06-14T11:14:47;6.57;;;2.80;;
55758;SDS011;41678;52.126;20.664;2023-06-14T11:20:12;10.15;;;2.63;;
55758;SDS011;41678;52.126;20.664;2023-06-14T11:25:35;7.60;;;2.88;;
55758;SDS011;41678;52.126;20.664;2023-06-14T11:31:01;7.35;;;2.95;;
55758;SDS011;41678;52.126;20.664;2023-06-14T11:36:21;10.43;;;3.55;;
55758;SDS011;41678;52.126;20.664;2023-06-14T11:41:44;11.45;;;3.40;;
55758;SDS011;41678;52.126;20.664;2023-06-14T11:47:04;11.15;;;3.35;;
55758;SDS011;41678;52.126;20.664;2023-06-14T11:52:24;14.23;;;3.33;;
55758;SDS011;41678;52.126;20.664;2023-06-14T11:57:46;8.95;;;3.80;;
55758;SDS011;41678;52.126;20.664;2023-06-14T12:03:06;7.00;;;2.83;;
55758;SDS011;41678;52.126;20.664;2023-06-14T12:08:31;7.03;;;2.75;;
55758;SDS011;41678;52.126;20.664;2023-06-14T12:14:02;7.38;;;2.83;;
55758;SDS011;41678;52.126;20.664;2023-06-14T12:19:25;8.75;;;3.47;;
55758;SDS011;41678;52.126;20.664;2023-06-14T12:24:45;10.10;;;3.33;;
55758;SDS011;41678;52.126;20.664;2023-06-14T12:30:06;10.10;;;2.90;;
55758;SDS011;41678;52.126;20.664;2023-06-14T12:35:27;10.05;;;2.65;;
55758;SDS011;41678;52.126;20.664;2023-06-14T12:40:47;6.30;;;2.70;;
55758;SDS011;41678;52.126;20.664;2023-06-14T12:46:07;8.02;;;3.25;;
55758;SDS011;41678;52.126;20.664;2023-06-14T12:51:26;9.02;;;2.90;;
55758;SDS011;41678;52.126;20.664;2023-06-14T12:56:46;13.25;;;3.00;;
55758;SDS011;41678;52.126;20.664;2023-06-14T13:07:32;5.57;;;1.98;;
55758;SDS011;41678;52.126;20.664;2023-06-14T13:12:52;9.43;;;2.38;;
55758;SDS011;41678;52.126;20.664;2023-06-14T13:18:11;5.25;;;2.13;;
55758;SDS011;41678;52.126;20.664;2023-06-14T13:23:35;7.05;;;2.42;;
55758;SDS011;41678;52.126;20.664;2023-06-14T13:28:54;6.18;;;2.30;;
55758;SDS011;41678;52.126;20.664;2023-06-14T13:34:14;7.70;;;2.00;;
55758;SDS011;41678;52.126;20.664;2023-06-14T13:39:34;10.52;;;2.80;;
55758;SDS011;41678;52.126;20.664;2023-06-14T13:44:56;7.90;;;2.38;;
55758;SDS011;41678;52.126;20.664;2023-06-14T13:50:16;12.10;;;2.85;;
55758;SDS011;41678;52.126;20.664;2023-06-14T13:55:36;9.73;;;2.90;;
55758;SDS011;41678;52.126;20.664;2023-06-14T14:00:56;14.23;;;2.55;;
55758;SDS011;41678;52.126;20.664;2023-06-14T14:06:16;5.18;;;1.90;;
55758;SDS011;41678;52.126;20.664;2023-06-14T14:11:36;5.68;;;1.83;;
55758;SDS011;41678;52.126;20.664;2023-06-14T14:16:55;5.45;;;1.90;;
55758;SDS011;41678;52.126;20.664;2023-06-14T14:22:15;11.73;;;2.70;;
55758;SDS011;41678;52.126;20.664;2023-06-14T14:27:34;8.02;;;2.67;;
55758;SDS011;41678;52.126;20.664;2023-06-14T14:32:54;5.20;;;2.53;;
55758;SDS011;41678;52.126;20.664;2023-06-14T14:38:14;7.93;;;3.03;;
55758;SDS011;41678;52.126;20.664;2023-06-14T14:43:37;7.82;;;3.08;;
55758;SDS011;41678;52.126;20.664;2023-06-14T14:48:56;6.25;;;3.05;;
55758;SDS011;41678;52.126;20.664;2023-06-14T14:54:18;9.52;;;3.15;;
55758;SDS011;41678;52.126;20.664;2023-06-14T14:59:37;11.80;;;3.15;;
55758;SDS011;41678;52.126;20.664;2023-06-14T15:04:57;6.88;;;3.08;;
55758;SDS011;41678;52.126;20.664;2023-06-14T15:10:20;9.82;;;3.15;;
55758;SDS011;41678;52.126;20.664;2023-06-14T15:15:39;11.57;;;3.10;;
55758;SDS011;41678;52.126;20.664;2023-06-14T15:20:59;6.47;;;2.88;;
55758;SDS011;41678;52.126;20.664;2023-06-14T15:26:19;5.45;;;2.58;;
55758;SDS011;41678;52.126;20.664;2023-06-14T15:31:39;9.53;;;3.17;;
55758;SDS011;41678;52.126;20.664;2023-06-14T15:36:58;6.38;;;2.30;;
55758;SDS011;41678;52.126;20.664;2023-06-14T15:42:19;8.43;;;2.47;;
55758;SDS011;41678;52.126;20.664;2023-06-14T15:47:38;7.28;;;2.30;;
55758;SDS011;41678;52.126;20.664;2023-06-14T15:52:58;8.55;;;2.72;;
55758;SDS011;41678;52.126;20.664;2023-06-14T15:58:18;9.73;;;2.33;;
55758;SDS011;41678;52.126;20.664;2023-06-14T16:03:37;6.72;;;2.50;;
55758;SDS011;41678;52.126;20.664;2023-06-14T16:08:57;7.53;;;2.58;;
55758;SDS011;41678;52.126;20.664;2023-06-14T16:14:17;11.45;;;2.63;;
55758;SDS011;41678;52.126;20.664;2023-06-14T16:19:36;9.60;;;2.30;;
55758;SDS011;41678;52.126;20.664;2023-06-14T16:24:56;7.38;;;2.70;;
55758;SDS011;41678;52.126;20.664;2023-06-14T16:30:15;10.32;;;2.65;;
55758;SDS011;41678;52.126;20.664;2023-06-14T16:35:35;7.82;;;3.80;;
55758;SDS011;41678;52.126;20.664;2023-06-14T16:40:55;10.70;;;2.95;;
55758;SDS011;41678;52.126;20.664;2023-06-14T16:46:15;5.63;;;2.60;;
55758;SDS011;41678;52.126;20.664;2023-06-14T16:51:47;6.50;;;2.80;;
55758;SDS011;41678;52.126;20.664;2023-06-14T16:57:06;7.45;;;2.97;;
55758;SDS011;41678;52.126;20.664;2023-06-14T17:02:27;6.17;;;2.80;;
55758;SDS011;41678;52.126;20.664;2023-06-14T17:07:46;14.95;;;3.90;;
55758;SDS011;41678;52.126;20.664;2023-06-14T17:13:06;9.68;;;3.75;;
55758;SDS011;41678;52.126;20.664;2023-06-14T17:18:26;7.93;;;3.33;;
55758;SDS011;41678;52.126;20.664;2023-06-14T17:23:45;8.32;;;2.75;;
55758;SDS011;41678;52.126;20.664;2023-06-14T17:29:05;7.53;;;2.90;;
55758;SDS011;41678;52.126;20.664;2023-06-14T17:34:25;8.52;;;3.72;;
55758;SDS011;41678;52.126;20.664;2023-06-14T17:39:44;9.32;;;3.53;;
55758;SDS011;41678;52.126;20.664;2023-06-14T17:45:04;11.80;;;2.85;;
55758;SDS011;41678;52.126;20.664;2023-06-14T17:50:24;7.33;;;2.83;;
55758;SDS011;41678;52.126;20.664;2023-06-14T17:55:43;5.72;;;2.58;;
55758;SDS011;41678;52.126;20.664;2023-06-14T18:01:03;12.20;;;2.92;;
55758;SDS011;41678;52.126;20.664;2023-06-14T18:06:23;7.95;;;2.78;;
55758;SDS011;41678;52.126;20.664;2023-06-14T18:11:42;7.85;;;3.40;;
55758;SDS011;41678;52.126;20.664;2023-06-14T18:17:02;7.85;;;3.30;;
55758;SDS011;41678;52.126;20.664;2023-06-14T18:22:22;9.10;;;3.33;;
55758;SDS011;41678;52.126;20.664;2023-06-14T18:33:26;6.25;;;3.05;;
55758;SDS011;41678;52.126;20.664;2023-06-14T18:38:45;8.07;;;3.85;;
55758;SDS011;41678;52.126;20.664;2023-06-14T18:44:05;9.80;;;4.78;;
55758;SDS011;41678;52.126;20.664;2023-06-14T18:49:25;10.35;;;4.60;;
55758;SDS011;41678;52.126;20.664;2023-06-14T18:54:45;11.35;;;4.97;;
55758;SDS011;41678;52.126;20.664;2023-06-14T19:00:04;14.93;;;4.80;;
55758;SDS011;41678;52.126;20.664;2023-06-14T19:05:25;10.77;;;5.18;;
55758;SDS011;41678;52.126;20.664;2023-06-14T19:10:44;11.23;;;4.75;;
55758;SDS011;41678;52.126;20.664;2023-06-14T19:16:03;12.95;;;5.80;;
55758;SDS011;41678;52.126;20.664;2023-06-14T19:21:23;16.60;;;4.45;;
55758;SDS011;41678;52.126;20.664;2023-06-14T19:26:43;15.60;;;5.18;;
55758;SDS011;41678;52.126;20.664;2023-06-14T19:32:02;12.15;;;5.18;;
55758;SDS011;41678;52.126;20.664;2023-06-14T19:37:23;10.93;;;4.95;;
55758;SDS011;41678;52.126;20.664;2023-06-14T19:42:42;9.02;;;4.97;;
55758;SDS011;41678;52.126;20.664;2023-06-14T19:48:02;10.70;;;5.32;;
55758;SDS011;41678;52.126;20.664;2023-06-14T19:53:22;9.70;;;5.17;;
55758;SDS011;41678;52.126;20.664;2023-06-14T19:58:42;12.13;;;5.45;;
55758;SDS011;41678;52.126;20.664;2023-06-14T20:04:02;16.38;;;5.75;;
55758;SDS011;41678;52.126;20.664;2023-06-14T20:09:22;12.65;;;7.00;;
55758;SDS011;41678;52.126;20.664;2023-06-14T20:14:45;18.13;;;10.05;;
55758;SDS011;41678;52.126;20.664;2023-06-14T20:20:04;17.40;;;7.50;;
55758;SDS011;41678;52.126;20.664;2023-06-14T20:25:24;16.92;;;7.63;;
55758;SDS011;41678;52.126;20.664;2023-06-14T20:30:44;12.75;;;6.60;;
55758;SDS011;41678;52.126;20.664;2023-06-14T20:36:03;15.70;;;7.13;;
55758;SDS011;41678;52.126;20.664;2023-06-14T20:41:24;13.10;;;6.45;;
55758;SDS011;41678;52.126;20.664;2023-06-14T20:46:44;11.70;;;6.22;;
55758;SDS011;41678;52.126;20.664;2023-06-14T20:52:07;10.63;;;5.57;;
55758;SDS011;41678;52.126;20.664;2023-06-14T20:57:27;13.10;;;5.70;;
55758;SDS011;41678;52.126;20.664;2023-06-14T21:02:46;11.77;;;6.18;;
55758;SDS011;41678;52.126;20.664;2023-06-14T21:08:06;14.45;;;7.07;;
55758;SDS011;41678;52.126;20.664;2023-06-14T21:13:26;14.02;;;6.28;;
55758;SDS011;41678;52.126;20.664;2023-06-14T21:18:45;14.30;;;7.13;;
55758;SDS011;41678;52.126;20.664;2023-06-14T21:24:04;14.35;;;7.38;;
55758;SDS011;41678;52.126;20.664;2023-06-14T21:29:24;15.20;;;6.75;;
55758;SDS011;41678;52.126;20.664;2023-06-14T21:34:44;12.52;;;6.65;;
55758;SDS011;41678;52.126;20.664;2023-06-14T21:40:04;12.57;;;6.15;;
55758;SDS011;41678;52.126;20.664;2023-06-14T21:45:24;11.35;;;6.47;;
55758;SDS011;41678;52.126;20.664;2023-06-14T21:50:44;12.75;;;7.65;;
55758;SDS011;41678;52.126;20.664;2023-06-14T21:56:03;11.68;;;6.18;;
55758;SDS011;41678;52.126;20.664;2023-06-14T22:01:23;13.48;;;7.28;;
55758;SDS011;41678;52.126;20.664;2023-06-14T22:06:43;13.65;;;6.68;;
55758;SDS011;41678;52.126;20.664;2023-06-14T22:12:04;14.85;;;7.18;;
55758;SDS011;41678;52.126;20.664;2023-06-14T22:17:25;13.30;;;7.20;;
55758;SDS011;41678;52.126;20.664;2023-06-14T22:22:48;14.43;;;7.13;;
55758;SDS011;41678;52.126;20.664;2023-06-14T22:28:08;13.95;;;7.50;;
55758;SDS011;41678;52.126;20.664;2023-06-14T22:33:28;12.20;;;7.30;;
55758;SDS011;41678;52.126;20.664;2023-06-14T22:38:47;13.52;;;7.40;;
55758;SDS011;41678;52.126;20.664;2023-06-14T22:44:06;14.15;;;7.22;;
55758;SDS011;41678;52.126;20.664;2023-06-14T22:49:26;20.52;;;8.45;;
55758;SDS011;41678;52.126;20.664;2023-06-14T22:54:49;17.38;;;7.93;;
55758;SDS011;41678;52.126;20.664;2023-06-14T23:00:09;13.30;;;8.18;;
55758;SDS011;41678;52.126;20.664;2023-06-14T23:05:33;12.90;;;7.10;;
55758;SDS011;41678;52.126;20.664;2023-06-14T23:10:53;14.18;;;7.95;;
55758;SDS011;41678;52.126;20.664;2023-06-14T23:16:12;18.98;;;8.27;;
55758;SDS011;41678;52.126;20.664;2023-06-14T23:21:33;17.63;;;7.67;;
55758;SDS011;41678;52.126;20.664;2023-06-14T23:26:55;12.80;;;7.65;;
55758;SDS011;41678;52.126;20.664;2023-06-14T23:32:19;14.85;;;7.65;;
55758;SDS011;41678;52.126;20.664;2023-06-14T23:37:39;14.25;;;7.25;;
55758;SDS011;41678;52.126;20.664;2023-06-14T23:43:00;11.90;;;7.45;;
55758;SDS011;41678;52.126;20.664;2023-06-14T23:48:25;18.05;;;8.00;;
55758;SDS011;41678;52.126;20.664;2023-06-14T23:53:44;15.50;;;8.15;;
55758;SDS011;41678;52.126;20.664;2023-06-14T23:59:06;11.20;;;6.80;;
